Time;durP1;ratioP1;P1;durP2;ratioP2;P2;SDS_P1;SDS_P2;PMS_P1;PMS_P2;Temp;Humidity;BMP_temperature;BMP_pressure;BME280_temperature;BME280_humidity;BME280_pressure;Samples;Min_cycle;Max_cycle;Signal;HPM_P1;HPM_P2
2021/03/18 00:01:11;;;;;;;;;;;;;;;4.08;72.51;99685.44;1777512;80;20283;-53
2021/03/18 00:04:16;;;;;;;;;;;;;;;4.00;72.65;99682.15;1777350;79;20187;-52
2021/03/18 00:07:20;;;;;;;;;;;;;;;3.89;72.93;99681.00;1777317;79;20246;-52
2021/03/18 00:10:25;;;;;;;;;;;;;;;3.86;73.13;99681.30;1777275;81;20272;-52
2021/03/18 00:13:30;;;;;;;;;;;;;;;3.82;73.34;99674.47;1777341;79;20279;-52
2021/03/18 00:16:33;;;;;;;;;;;;;;;3.83;73.49;99673.48;1777124;80;20207;-52
2021/03/18 00:19:39;;;;;;;;;;;;;;;3.77;73.63;99667.33;1777167;80;20306;-53
2021/03/18 00:22:46;;;;;;;;;;;;;;;3.73;73.72;99661.85;1777387;79;20294;-53
2021/03/18 00:25:51;;;;;;;;;;;;;;;3.58;73.80;99657.09;1776765;81;20207;-52
2021/03/18 00:28:55;;;;;;;;;;;;;;;3.50;74.16;99658.34;1777499;79;20223;-52
2021/03/18 00:31:59;;;;;;;;;;;;;;;3.51;74.53;99654.12;1776802;81;20283;-52
2021/03/18 00:35:04;;;;;;;;;;;;;;;3.62;74.72;99660.70;1772318;80;20211;-54
2021/03/18 00:38:08;;;;;;;;;;;;;;;3.72;74.68;99657.45;1709102;82;20240;-53
2021/03/18 00:41:15;;;;;;;;;;;;;;;3.74;74.31;99650.02;1708755;84;20201;-53
2021/03/18 00:44:18;;;;;;;;;;;;;;;3.71;74.38;99653.55;1708876;82;20248;-52
2021/03/18 00:47:23;;;;;;;;;;;;;;;3.66;74.29;99650.44;1735299;81;20311;-52
2021/03/18 00:50:32;;;;;;;;;;;;;;;3.65;74.49;99638.75;1735068;83;20213;-53
2021/03/18 00:53:41;;;;;;;;;;;;;;;3.67;74.52;99634.53;1735091;81;20175;-52
2021/03/18 00:56:47;;;;;;;;;;;;;;;3.70;74.44;99638.29;1735734;81;20246;-54
2021/03/18 00:59:51;;;;;;;;;;;;;;;3.65;74.28;99637.39;1735752;82;20209;-53
2021/03/18 01:02:58;;;;;;;;;;;;;;;3.58;74.39;99640.37;1735432;81;20241;-53
2021/03/18 01:06:17;;;;;;;;;;;;;;;3.55;74.67;99639.28;1735297;83;20249;-52
2021/03/18 01:09:22;;;;;;;;;;;;;;;3.56;74.66;99639.66;1735715;81;20217;-53
2021/03/18 01:12:27;;;;;;;;;;;;;;;3.61;74.65;99636.50;1735206;81;20440;-52
2021/03/18 01:15:33;;;;;;;;;;;;;;;3.64;74.61;99638.41;1735672;81;20206;-52
2021/03/18 01:18:54;;;;;;;;;;;;;;;3.63;74.48;99637.20;1735443;81;20242;-53
2021/03/18 01:22:02;;;;;;;;;;;;;;;3.58;74.46;99640.37;1735092;83;20553;-53
2021/03/18 01:25:07;;;;;;;;;;;;;;;3.62;74.64;99631.42;1735066;83;20198;-53
2021/03/18 01:28:11;;;;;;;;;;;;;;;3.67;74.59;99644.00;1735812;81;20202;-55
2021/03/18 01:31:18;;;;;;;;;;;;;;;3.70;74.55;99644.56;1734922;83;20214;-53
2021/03/18 01:34:23;;;;;;;;;;;;;;;3.77;74.58;99643.47;1736767;81;20230;-53
2021/03/18 01:37:27;;;;;;;;;;;;;;;3.91;74.44;99651.94;1738405;81;20218;-54
2021/03/18 01:40:35;;;;;;;;;;;;;;;3.89;74.14;99644.95;1737458;82;20670;-53
2021/03/18 01:43:39;;;;;;;;;;;;;;;3.98;74.11;99653.01;1738110;81;20281;-53
2021/03/18 01:46:44;;;;;;;;;;;;;;;4.07;73.84;99646.70;1737547;82;20253;-54
2021/03/18 01:49:47;;;;;;;;;;;;;;;3.98;73.30;99647.59;1737799;82;20231;-53
2021/03/18 01:52:51;;;;;;;;;;;;;;;3.92;73.53;99653.62;1737355;81;20198;-54
2021/03/18 01:55:55;;;;;;;;;;;;;;;3.98;73.52;99645.41;1737549;82;20245;-55
2021/03/18 01:58:59;;;;;;;;;;;;;;;3.97;73.34;99652.67;1737544;81;20210;-52
2021/03/18 02:02:03;;;;;;;;;;;;;;;3.85;73.14;99651.19;1737490;82;20210;-53
2021/03/18 02:05:07;;;;;;;;;;;;;;;3.71;73.39;99657.08;1737698;82;20502;-54
2021/03/18 02:08:13;;;;;;;;;;;;;;;3.67;73.61;99661.11;1737875;81;20198;-53
2021/03/18 02:11:16;;;;;;;;;;;;;;;3.58;73.67;99653.03;1737595;82;20217;-54
2021/03/18 02:14:22;;;;;;;;;;;;;;;3.51;73.91;99651.42;1737612;81;20203;-53
2021/03/18 02:17:29;;;;;;;;;;;;;;;3.41;74.21;99644.36;1737606;81;20630;-53
2021/03/18 02:20:56;;;;;;;;;;;;;;;3.35;74.49;99652.55;1737763;82;20531;-53
2021/03/18 02:24:09;;;;;;;;;;;;;;;3.38;74.56;99650.90;1737524;81;20297;-53
2021/03/18 02:27:38;;;;;;;;;;;;;;;3.24;74.71;99651.38;1737738;81;20214;-52
2021/03/18 02:30:54;;;;;;;;;;;;;;;3.20;75.07;99660.80;1737479;82;20214;-53
2021/03/18 02:34:37;;;;;;;;;;;;;;;3.28;75.27;99666.82;1737786;81;20325;-52
2021/03/18 02:37:40;;;;;;;;;;;;;;;3.30;75.27;99662.95;1737678;81;20286;-51
2021/03/18 02:40:50;;;;;;;;;;;;;;;3.45;75.35;99672.80;1737978;81;20464;-53
2021/03/18 02:43:58;;;;;;;;;;;;;;;3.58;75.15;99678.25;1738036;81;20313;-52
2021/03/18 02:47:07;;;;;;;;;;;;;;;3.72;74.98;99682.30;1738043;81;20206;-54
2021/03/18 02:50:14;;;;;;;;;;;;;;;3.78;74.52;99692.03;1737447;82;20282;-54
2021/03/18 02:53:19;;;;;;;;;;;;;;;3.78;74.18;99685.27;1738561;81;20297;-54
2021/03/18 02:56:24;;;;;;;;;;;;;;;3.77;74.17;99693.53;1720603;82;20574;-53
2021/03/18 02:59:31;;;;;;;;;;;;;;;3.85;74.03;99691.80;1737746;81;20293;-53
2021/03/18 03:02:36;;;;;;;;;;;;;;;3.90;73.77;99702.17;1737591;81;20293;-52
2021/03/18 03:05:41;;;;;;;;;;;;;;;3.95;73.69;99696.63;1737460;82;20321;-53
2021/03/18 03:08:47;;;;;;;;;;;;;;;3.95;73.33;99698.48;1738215;81;20338;-52
2021/03/18 03:11:50;;;;;;;;;;;;;;;3.93;73.25;99704.05;1737589;82;20218;-53
2021/03/18 03:14:55;;;;;;;;;;;;;;;3.96;73.13;99706.48;1737549;82;20281;-53
2021/03/18 03:18:00;;;;;;;;;;;;;;;3.93;72.93;99706.75;1737681;81;20317;-53
2021/03/18 03:21:05;;;;;;;;;;;;;;;3.94;73.04;99707.12;1737714;81;20404;-53
2021/03/18 03:24:10;;;;;;;;;;;;;;;3.97;72.87;99708.17;1737565;81;20186;-53
2021/03/18 03:27:14;;;;;;;;;;;;;;;3.99;72.84;99713.44;1737640;81;20281;-54
2021/03/18 03:30:21;;;;;;;;;;;;;;;4.03;72.71;99715.69;1737643;81;20210;-54
2021/03/18 03:33:24;;;;;;;;;;;;;;;4.08;72.55;99715.23;1737575;81;20273;-54
2021/03/18 03:36:30;;;;;;;;;;;;;;;4.12;72.33;99713.94;1742369;81;20281;-54
2021/03/18 03:39:34;;;;;;;;;;;;;;;4.10;72.23;99703.75;1748212;81;20217;-53
2021/03/18 03:42:38;;;;;;;;;;;;;;;4.01;71.95;99716.33;1747781;81;20209;-53
2021/03/18 03:45:42;;;;;;;;;;;;;;;3.91;72.15;99719.61;1748311;81;20213;-53
2021/03/18 03:48:47;;;;;;;;;;;;;;;3.80;72.25;99714.40;1748239;81;20257;-53
2021/03/18 03:52:13;;;;;;;;;;;;;;;3.77;72.48;99716.55;1748590;81;20224;-53
2021/03/18 03:55:24;;;;;;;;;;;;;;;3.67;72.62;99713.02;1774476;81;20306;-53
2021/03/18 03:58:42;;;;;;;;;;;;;;;3.66;72.78;99708.61;1774355;79;20275;-52
2021/03/18 04:01:52;;;;;;;;;;;;;;;3.61;73.04;99717.19;1774465;80;20303;-52
2021/03/18 04:04:56;;;;;;;;;;;;;;;3.64;73.11;99722.30;1773854;80;20215;-53
2021/03/18 04:08:08;;;;;;;;;;;;;;;3.67;73.11;99730.11;1774656;79;20196;-53
2021/03/18 04:11:14;;;;;;;;;;;;;;;3.60;73.07;99730.34;1774227;80;20234;-54
2021/03/18 04:14:20;;;;;;;;;;;;;;;3.56;73.30;99726.73;1774454;79;20207;-53
2021/03/18 04:17:23;;;;;;;;;;;;;;;3.52;73.39;99723.45;1774243;79;20239;-54
2021/03/18 04:20:30;;;;;;;;;;;;;;;3.59;73.70;99720.52;1774833;80;20202;-55
2021/03/18 04:23:35;;;;;;;;;;;;;;;3.70;73.53;99720.34;1774847;79;20211;-55
2021/03/18 04:26:41;;;;;;;;;;;;;;;3.72;73.37;99720.19;1774366;81;20203;-54
2021/03/18 04:29:45;;;;;;;;;;;;;;;3.74;73.26;99727.67;1774336;81;20250;-54
2021/03/18 04:32:51;;;;;;;;;;;;;;;3.76;73.24;99731.92;1774319;79;20210;-54
2021/03/18 04:35:57;;;;;;;;;;;;;;;3.83;73.13;99737.10;1774335;81;20239;-53
2021/03/18 04:39:02;;;;;;;;;;;;;;;3.71;72.90;99737.44;1773640;79;20243;-53
2021/03/18 04:42:06;;;;;;;;;;;;;;;3.68;73.10;99738.57;1774610;81;20277;-53
2021/03/18 04:45:13;;;;;;;;;;;;;;;3.69;73.18;99736.23;1774667;81;20297;-53
2021/03/18 04:48:17;;;;;;;;;;;;;;;3.76;73.26;99731.92;1774486;79;20230;-53
2021/03/18 04:51:22;;;;;;;;;;;;;;;3.78;73.05;99729.92;1774733;81;20310;-53
2021/03/18 04:54:26;;;;;;;;;;;;;;;3.76;73.10;99735.98;1774656;79;20203;-54
2021/03/18 04:57:31;;;;;;;;;;;;;;;3.81;73.17;99738.23;1774571;79;20279;-53
2021/03/18 05:00:38;;;;;;;;;;;;;;;3.78;73.07;99750.71;1774492;81;20270;-54
2021/03/18 05:03:43;;;;;;;;;;;;;;;3.85;73.16;99755.41;1774605;79;20299;-55
2021/03/18 05:06:52;;;;;;;;;;;;;;;3.87;72.88;99741.20;1774641;81;20286;-55
2021/03/18 05:09:56;;;;;;;;;;;;;;;3.84;73.03;99755.53;1774558;81;20219;-53
2021/03/18 05:13:02;;;;;;;;;;;;;;;3.85;72.94;99752.70;1774529;79;20275;-53
2021/03/18 05:16:08;;;;;;;;;;;;;;;3.91;73.05;99762.92;1774396;81;20247;-54
2021/03/18 05:19:17;;;;;;;;;;;;;;;4.01;73.05;99764.24;1774635;79;20211;-54
2021/03/18 05:22:21;;;;;;;;;;;;;;;4.14;72.82;99768.30;1774584;79;20307;-53
2021/03/18 05:25:29;;;;;;;;;;;;;;;4.18;72.27;99778.33;1772346;81;20330;-54
2021/03/18 05:28:35;;;;;;;;;;;;;;;4.13;72.13;99773.37;1745508;81;20301;-54
2021/03/18 05:31:39;;;;;;;;;;;;;;;4.17;72.40;99783.41;1745553;82;20201;-52
2021/03/18 05:34:44;;;;;;;;;;;;;;;4.27;72.22;99786.41;1746088;82;20600;-54
2021/03/18 05:37:49;;;;;;;;;;;;;;;4.26;71.68;99790.63;1745774;81;20249;-53
2021/03/18 05:40:57;;;;;;;;;;;;;;;4.17;71.86;99793.72;1750105;82;20206;-52
2021/03/18 05:44:02;;;;;;;;;;;;;;;4.23;71.90;99789.05;1750922;80;20210;-53
2021/03/18 05:47:06;;;;;;;;;;;;;;;4.29;71.58;99795.25;1750515;82;20214;-54
2021/03/18 05:50:14;;;;;;;;;;;;;;;4.27;71.47;99804.02;1751179;82;20347;-52
2021/03/18 05:53:18;;;;;;;;;;;;;;;4.30;71.49;99802.36;1748382;80;20217;-53
2021/03/18 05:56:25;;;;;;;;;;;;;;;4.33;71.21;99804.77;1749639;82;20206;-54
2021/03/18 05:59:29;;;;;;;;;;;;;;;4.34;71.13;99811.88;1745116;82;20245;-53
2021/03/18 06:02:32;;;;;;;;;;;;;;;4.20;71.10;99805.61;1749802;80;20229;-52
2021/03/18 06:05:38;;;;;;;;;;;;;;;4.22;71.47;99804.97;1750209;82;20319;-55
2021/03/18 06:08:42;;;;;;;;;;;;;;;4.22;71.41;99813.09;1750640;80;20353;-57
2021/03/18 06:11:47;;;;;;;;;;;;;;;4.21;71.52;99821.37;1749925;82;20209;-55
2021/03/18 06:14:53;;;;;;;;;;;;;;;4.16;71.55;99824.53;1749941;82;20213;-55
2021/03/18 06:17:58;;;;;;;;;;;;;;;4.19;71.82;99822.88;1750630;80;20245;-55
2021/03/18 06:21:05;;;;;;;;;;;;;;;4.26;71.63;99829.41;1750084;82;20206;-54
2021/03/18 06:24:09;;;;;;;;;;;;;;;4.29;71.45;99827.75;1750060;80;20792;-55
2021/03/18 06:27:15;;;;;;;;;;;;;;;4.32;71.50;99826.59;1750009;80;20526;-60
2021/03/18 06:30:19;;;;;;;;;;;;;;;4.45;71.43;99829.81;1728058;82;20604;-55
2021/03/18 06:33:35;;;;;;;;;;;;;;;4.51;70.97;99822.42;1719800;82;20200;-55
2021/03/18 06:36:42;;;;;;;;;;;;;;;4.59;70.82;99824.74;1720418;83;20265;-55
2021/03/18 06:39:46;;;;;;;;;;;;;;;4.61;70.61;99830.01;1753405;80;20212;-55
2021/03/18 06:43:01;;;;;;;;;;;;;;;4.63;70.30;99820.70;1776067;79;20195;-54
2021/03/18 06:46:05;;;;;;;;;;;;;;;4.70;70.20;99823.66;1773082;81;20310;-54
2021/03/18 06:49:18;;;;;;;;;;;;;;;4.78;70.25;99831.03;1719376;82;20209;-54
2021/03/18 06:52:24;;;;;;;;;;;;;;;4.91;69.81;99820.67;1723162;82;20215;-55
2021/03/18 06:55:37;;;;;;;;;;;;;;;5.03;69.22;99811.29;1724186;83;20521;-55
2021/03/18 06:58:41;;;;;;;;;;;;;;;5.07;69.24;99823.55;1752717;82;20366;-55
2021/03/18 07:01:45;;;;;;;;;;;;;;;5.26;69.12;99824.26;1741474;82;20519;-56
2021/03/18 07:04:56;;;;;;;;;;;;;;;5.40;68.14;99822.84;1710630;83;20296;-55
2021/03/18 07:07:59;;;;;;;;;;;;;;;5.33;67.90;99813.60;1752383;82;20217;-54
2021/03/18 07:11:05;;;;;;;;;;;;;;;5.30;68.11;99817.49;1709676;84;20280;-54
2021/03/18 07:14:08;;;;;;;;;;;;;;;5.35;67.96;99818.37;1708292;84;20565;-54
2021/03/18 07:17:19;;;;;;;;;;;;;;;5.27;67.78;99821.02;1710837;83;20288;-56
2021/03/18 07:20:28;;;;;;;;;;;;;;;5.20;68.07;99817.23;1709932;84;20332;-54
2021/03/18 07:23:41;;;;;;;;;;;;;;;5.19;67.84;99817.73;1708425;84;20253;-55
2021/03/18 07:26:51;;;;;;;;;;;;;;;5.12;68.09;99820.70;1709250;84;20664;-54
2021/03/18 07:29:58;;;;;;;;;;;;;;;5.19;68.43;99825.01;1711422;84;20209;-56
2021/03/18 07:33:04;;;;;;;;;;;;;;;5.28;68.51;99822.74;1683833;84;20242;-54
2021/03/18 07:36:11;;;;;;;;;;;;;;;5.33;68.21;99812.25;1695486;84;20240;-56
2021/03/18 07:39:15;;;;;;;;;;;;;;;5.32;68.08;99814.62;1693907;83;20248;-56
2021/03/18 07:42:20;;;;;;;;;;;;;;;5.33;68.01;99805.46;1708589;82;20228;-56
2021/03/18 07:45:25;;;;;;;;;;;;;;;5.30;67.49;99805.78;1707651;84;20224;-55
2021/03/18 07:48:33;;;;;;;;;;;;;;;5.26;67.71;99811.19;1706905;82;20251;-55
2021/03/18 07:51:43;;;;;;;;;;;;;;;5.37;67.90;99819.08;1693376;84;20563;-56
2021/03/18 07:54:46;;;;;;;;;;;;;;;5.64;67.47;99825.26;1705638;84;20216;-54
2021/03/18 07:57:54;;;;;;;;;;;;;;;5.68;66.64;99813.05;1707411;82;20216;-56
2021/03/18 08:01:01;;;;;;;;;;;;;;;5.72;66.67;99826.64;1709852;84;20212;-56
2021/03/18 08:04:10;;;;;;;;;;;;;;;5.76;66.13;99825.83;1709342;82;20216;-56
2021/03/18 08:07:18;;;;;;;;;;;;;;;5.86;66.47;99830.20;1693821;82;20252;-55
2021/03/18 08:10:32;;;;;;;;;;;;;;;6.07;65.97;99832.54;1710074;83;20227;-55
2021/03/18 08:13:45;;;;;;;;;;;;;;;6.15;65.55;99831.23;1713819;81;20566;-55
2021/03/18 08:16:50;;;;;;;;;;;;;;;6.06;65.05;99830.81;1708929;82;20222;-56
2021/03/18 08:19:59;;;;;;;;;;;;;;;6.00;64.79;99836.89;1705649;84;20219;-54
2021/03/18 08:23:02;;;;;;;;;;;;;;;5.80;64.61;99830.78;1709336;82;20212;-54
2021/03/18 08:26:09;;;;;;;;;;;;;;;5.87;65.14;99830.53;1709319;84;20541;-54
2021/03/18 08:29:20;;;;;;;;;;;;;;;5.97;65.07;99838.08;1706269;84;20260;-54
2021/03/18 08:32:34;;;;;;;;;;;;;;;5.96;64.62;99835.00;1709184;84;20247;-55
2021/03/18 08:35:41;;;;;;;;;;;;;;;5.97;65.07;99841.30;1681231;85;20219;-54
2021/03/18 08:38:48;;;;;;;;;;;;;;;5.98;65.03;99841.63;1680824;84;20214;-54
2021/03/18 08:41:52;;;;;;;;;;;;;;;6.06;64.65;99845.75;1672705;84;20232;-53
2021/03/18 08:44:58;;;;;;;;;;;;;;;6.09;64.48;99850.38;1651984;86;20584;-53
2021/03/18 08:48:06;;;;;;;;;;;;;;;6.16;64.39;99846.51;1672497;84;20318;-55
2021/03/18 08:51:12;;;;;;;;;;;;;;;6.24;64.41;99842.48;1662930;85;20789;-55
2021/03/18 08:54:17;;;;;;;;;;;;;;;6.25;64.32;99850.97;1678344;84;20207;-55
2021/03/18 08:57:30;;;;;;;;;;;;;;;6.30;64.46;99853.19;1679889;83;20289;-56
2021/03/18 09:00:39;;;;;;;;;;;;;;;6.39;64.04;99856.33;1678830;85;20222;-56
2021/03/18 09:03:44;;;;;;;;;;;;;;;6.33;63.81;99858.34;1678120;85;20199;-54
2021/03/18 09:07:08;;;;;;;;;;;;;;;6.31;64.07;99857.64;1647180;86;20241;-55
2021/03/18 09:10:23;;;;;;;;;;;;;;;6.16;64.37;99862.81;1647644;87;20656;-54
2021/03/18 09:13:31;;;;;;;;;;;;;;;6.15;64.96;99867.05;1669368;84;20260;-54
2021/03/18 09:16:34;;;;;;;;;;;;;;;6.22;64.66;99868.95;1666527;85;20242;-55
2021/03/18 09:19:40;;;;;;;;;;;;;;;6.23;64.74;99865.74;1669814;85;20253;-54
2021/03/18 09:22:46;;;;;;;;;;;;;;;6.19;64.14;99876.08;1678094;84;20270;-55
2021/03/18 09:25:56;;;;;;;;;;;;;;;5.86;64.53;99879.09;1674448;83;20299;-55
2021/03/18 09:29:03;;;;;;;;;;;;;;;5.69;64.82;99877.20;1679518;83;20237;-55
2021/03/18 09:32:12;;;;;;;;;;;;;;;5.64;65.16;99880.05;1679097;83;20221;-58
2021/03/18 09:35:20;;;;;;;;;;;;;;;5.67;65.43;99879.73;1677593;83;20567;-55
2021/03/18 09:38:31;;;;;;;;;;;;;;;5.75;65.31;99877.09;1656703;85;20294;-56
2021/03/18 09:41:36;;;;;;;;;;;;;;;5.80;65.14;99880.19;1663783;84;20472;-54
2021/03/18 09:44:42;;;;;;;;;;;;;;;5.77;65.15;99881.34;1686124;85;20254;-55
2021/03/18 09:47:55;;;;;;;;;;;;;;;5.62;65.02;99882.92;1651192;85;20228;-56
2021/03/18 09:51:01;;;;;;;;;;;;;;;5.55;65.59;99884.55;1688973;83;20222;-53
2021/03/18 09:54:11;;;;;;;;;;;;;;;5.54;65.76;99884.70;1683127;84;20503;-54
2021/03/18 09:57:17;;;;;;;;;;;;;;;5.62;65.71;99890.20;1683558;84;20591;-53
2021/03/18 10:00:22;;;;;;;;;;;;;;;5.65;65.58;99881.25;1682267;85;20249;-54
2021/03/18 10:03:27;;;;;;;;;;;;;;;5.59;65.32;99887.31;1703253;83;20197;-53
2021/03/18 10:06:41;;;;;;;;;;;;;;;5.54;65.78;99889.64;1708162;84;20269;-53
2021/03/18 10:09:48;;;;;;;;;;;;;;;5.65;65.54;99885.82;1709587;84;20212;-53
2021/03/18 10:12:57;;;;;;;;;;;;;;;5.60;65.41;99890.86;1710055;83;20615;-54
2021/03/18 10:16:02;;;;;;;;;;;;;;;5.50;65.63;99895.02;1689600;84;20205;-54
2021/03/18 10:19:08;;;;;;;;;;;;;;;5.50;65.80;99892.83;1719469;82;20335;-55
2021/03/18 10:22:16;;;;;;;;;;;;;;;5.59;66.13;99898.17;1710258;82;20221;-56
2021/03/18 10:25:28;;;;;;;;;;;;;;;5.79;66.41;99897.47;1706745;82;20253;-56
2021/03/18 10:28:38;;;;;;;;;;;;;;;6.02;65.99;99900.08;1709742;83;20605;-56
2021/03/18 10:31:44;;;;;;;;;;;;;;;6.13;65.51;99897.59;1710864;84;20213;-55
2021/03/18 10:34:51;;;;;;;;;;;;;;;6.30;65.60;99898.91;1708235;84;20231;-55
2021/03/18 10:37:55;;;;;;;;;;;;;;;6.52;65.12;99894.27;1719199;81;20686;-55
2021/03/18 10:41:02;;;;;;;;;;;;;;;6.76;64.73;99899.83;1711012;84;20719;-55
2021/03/18 10:44:07;;;;;;;;;;;;;;;6.81;64.70;99893.40;1707636;82;20315;-55
2021/03/18 10:47:28;;;;;;;;;;;;;;;6.98;64.53;99896.52;1673619;83;20247;-54
2021/03/18 10:50:35;;;;;;;;;;;;;;;7.13;63.25;99890.80;1670125;83;20235;-55
2021/03/18 10:53:44;;;;;;;;;;;;;;;6.90;62.51;99892.90;1672408;83;20270;-55
2021/03/18 10:56:50;;;;;;;;;;;;;;;6.66;62.52;99899.09;1667538;86;20556;-55
2021/03/18 11:00:03;;;;;;;;;;;;;;;6.53;63.00;99898.71;1671082;86;20317;-56
2021/03/18 11:03:12;;;;;;;;;;;;;;;6.52;62.92;99894.77;1676422;83;20215;-54
2021/03/18 11:06:26;;;;;;;;;;;;;;;6.45;63.11;99897.31;1670532;84;20211;-54
2021/03/18 11:09:32;;;;;;;;;;;;;;;6.32;63.17;99888.73;1670416;86;20247;-54
2021/03/18 11:12:38;;;;;;;;;;;;;;;6.24;63.42;99892.76;1669905;86;20219;-54
2021/03/18 11:15:54;;;;;;;;;;;;;;;6.14;63.95;99900.15;1669872;86;20559;-54
2021/03/18 11:19:05;;;;;;;;;;;;;;;6.19;64.10;99888.80;1670187;86;20298;-54
2021/03/18 11:22:12;;;;;;;;;;;;;;;6.28;63.62;99881.06;1670285;84;20219;-54
2021/03/18 11:25:18;;;;;;;;;;;;;;;6.27;63.71;99889.71;1667054;83;20210;-54
2021/03/18 11:28:24;;;;;;;;;;;;;;;6.36;63.56;99887.37;1668217;83;20531;-55
2021/03/18 11:31:31;;;;;;;;;;;;;;;6.45;63.67;99891.88;1672467;82;20545;-55
2021/03/18 11:34:42;;;;;;;;;;;;;;;6.65;63.36;99887.88;1705225;82;20208;-54
2021/03/18 11:37:47;;;;;;;;;;;;;;;6.70;62.84;99881.45;1669797;84;20544;-54
2021/03/18 11:40:53;;;;;;;;;;;;;;;6.81;62.71;99889.31;1641888;86;20279;-54
2021/03/18 11:43:57;;;;;;;;;;;;;;;6.88;62.20;99887.63;1661278;84;20303;-54
2021/03/18 11:47:06;;;;;;;;;;;;;;;6.70;61.51;99890.11;1716017;83;20217;-54
2021/03/18 11:50:11;;;;;;;;;;;;;;;6.63;61.74;99891.27;1708372;83;20244;-54
2021/03/18 11:53:16;;;;;;;;;;;;;;;6.54;61.82;99897.69;1715245;83;20214;-54
2021/03/18 11:56:20;;;;;;;;;;;;;;;6.53;61.83;99901.93;1709021;83;20234;-54
2021/03/18 11:59:24;;;;;;;;;;;;;;;6.47;61.92;99899.86;1710649;83;20208;-53
2021/03/18 12:02:30;;;;;;;;;;;;;;;6.37;62.53;99898.62;1688612;83;20241;-53
2021/03/18 12:05:35;;;;;;;;;;;;;;;6.37;62.65;99908.63;1685645;85;20234;-53
2021/03/18 12:08:39;;;;;;;;;;;;;;;6.27;62.38;99912.81;1691984;84;20497;-54
2021/03/18 12:11:45;;;;;;;;;;;;;;;6.18;62.64;99921.08;1710960;83;20225;-54
2021/03/18 12:14:50;;;;;;;;;;;;;;;6.03;62.72;99918.08;1712884;84;20245;-55
2021/03/18 12:17:57;;;;;;;;;;;;;;;5.92;63.09;99906.11;1712411;84;20257;-54
2021/03/18 12:21:03;;;;;;;;;;;;;;;5.86;63.13;99912.17;1711718;84;20233;-54
2021/03/18 12:24:07;;;;;;;;;;;;;;;5.89;63.47;99910.00;1716618;82;20242;-54
2021/03/18 12:27:12;;;;;;;;;;;;;;;6.02;63.11;99921.81;1710362;82;20209;-53
2021/03/18 12:30:18;;;;;;;;;;;;;;;6.01;63.07;99924.16;1714333;84;20217;-55
2021/03/18 12:33:22;;;;;;;;;;;;;;;5.88;63.27;99932.72;1714218;82;20213;-55
2021/03/18 12:36:27;;;;;;;;;;;;;;;5.60;63.91;99931.09;1714123;84;20665;-55
2021/03/18 12:39:31;;;;;;;;;;;;;;;5.50;64.68;99938.44;1713605;82;20217;-54
2021/03/18 12:42:34;;;;;;;;;;;;;;;5.45;65.03;99935.36;1709441;82;20229;-55
2021/03/18 12:45:38;;;;;;;;;;;;;;;5.46;65.27;99936.20;1708273;82;20702;-55
2021/03/18 12:48:42;;;;;;;;;;;;;;;5.51;65.29;99934.73;1711638;82;20258;-54
2021/03/18 12:51:48;;;;;;;;;;;;;;;5.59;65.48;99936.67;1710361;84;20267;-55
2021/03/18 12:54:54;;;;;;;;;;;;;;;5.70;65.57;99936.44;1710268;84;20219;-55
2021/03/18 12:58:04;;;;;;;;;;;;;;;5.83;65.38;99935.58;1710605;82;20220;-54
2021/03/18 13:01:09;;;;;;;;;;;;;;;5.91;65.09;99939.20;1715409;82;20211;-53
2021/03/18 13:04:17;;;;;;;;;;;;;;;5.91;65.07;99938.36;1716433;82;20196;-54
2021/03/18 13:07:21;;;;;;;;;;;;;;;5.98;64.65;99942.14;1716712;82;20229;-54
2021/03/18 13:10:26;;;;;;;;;;;;;;;5.98;64.53;99936.70;1715177;82;20251;-54
2021/03/18 13:13:31;;;;;;;;;;;;;;;6.03;64.53;99946.59;1719537;82;20830;-54
2021/03/18 13:16:36;;;;;;;;;;;;;;;6.01;64.33;99945.40;1689629;84;20229;-54
2021/03/18 13:19:41;;;;;;;;;;;;;;;6.02;64.19;99950.34;1712359;83;20254;-54
2021/03/18 13:22:46;;;;;;;;;;;;;;;6.04;64.23;99945.61;1690494;83;20666;-54
2021/03/18 13:25:54;;;;;;;;;;;;;;;6.08;63.66;99947.84;1704075;84;20576;-54
2021/03/18 13:28:58;;;;;;;;;;;;;;;6.06;63.55;99942.20;1711346;82;20837;-54
2021/03/18 13:32:02;;;;;;;;;;;;;;;6.04;63.72;99946.97;1693030;83;20717;-54
2021/03/18 13:35:08;;;;;;;;;;;;;;;6.08;63.42;99948.34;1713044;82;20219;-54
2021/03/18 13:38:12;;;;;;;;;;;;;;;6.13;63.62;99936.50;1685242;84;20213;-55
2021/03/18 13:41:16;;;;;;;;;;;;;;;6.23;63.17;99944.06;1708014;82;20618;-54
2021/03/18 13:44:21;;;;;;;;;;;;;;;6.18;62.68;99940.95;1713861;82;20652;-53
2021/03/18 13:47:25;;;;;;;;;;;;;;;6.13;62.56;99929.70;1680325;83;20224;-54
2021/03/18 13:50:30;;;;;;;;;;;;;;;6.01;62.78;99939.97;1685845;84;20544;-54
2021/03/18 13:53:35;;;;;;;;;;;;;;;5.81;63.42;99944.34;1686620;84;20227;-54
2021/03/18 13:56:38;;;;;;;;;;;;;;;5.67;64.22;99951.19;1686333;85;20253;-53
2021/03/18 13:59:42;;;;;;;;;;;;;;;5.65;64.40;99950.98;1711968;83;20818;-54
2021/03/18 14:02:46;;;;;;;;;;;;;;;5.63;64.64;99963.84;1711027;82;20253;-53
2021/03/18 14:05:52;;;;;;;;;;;;;;;5.62;64.78;99954.01;1710900;84;20220;-54
2021/03/18 14:08:58;;;;;;;;;;;;;;;5.56;64.98;99947.35;1710259;82;20308;-54
2021/03/18 14:12:01;;;;;;;;;;;;;;;5.58;65.13;99953.45;1719064;82;20473;-54
2021/03/18 14:15:07;;;;;;;;;;;;;;;5.66;65.27;99958.13;1700203;83;20300;-54
2021/03/18 14:18:13;;;;;;;;;;;;;;;5.72;64.95;99952.91;1697611;82;20212;-54
2021/03/18 14:21:18;;;;;;;;;;;;;;;5.75;64.59;99957.20;1715281;83;20319;-53
2021/03/18 14:24:24;;;;;;;;;;;;;;;5.67;64.51;99959.83;1719817;83;20315;-53
2021/03/18 14:27:28;;;;;;;;;;;;;;;5.56;64.72;99958.70;1708392;82;20725;-54
2021/03/18 14:30:34;;;;;;;;;;;;;;;5.50;64.93;99960.16;1705920;83;20208;-55
2021/03/18 14:33:39;;;;;;;;;;;;;;;5.56;65.13;99973.64;1709924;82;20216;-54
2021/03/18 14:36:44;;;;;;;;;;;;;;;5.52;64.97;99977.65;1705159;83;20248;-54
2021/03/18 14:39:47;;;;;;;;;;;;;;;5.49;65.19;99972.03;1707238;84;20292;-54
2021/03/18 14:42:51;;;;;;;;;;;;;;;5.51;65.12;99981.38;1685607;83;20270;-55
2021/03/18 14:45:56;;;;;;;;;;;;;;;5.49;65.15;99976.59;1726106;83;20336;-56
2021/03/18 14:49:03;;;;;;;;;;;;;;;5.51;65.33;99980.03;1729812;81;20283;-55
2021/03/18 14:52:08;;;;;;;;;;;;;;;5.46;65.13;99969.63;1723518;82;20237;-53
2021/03/18 14:55:14;;;;;;;;;;;;;;;5.38;65.15;99972.26;1724086;83;20233;-54
2021/03/18 14:58:18;;;;;;;;;;;;;;;5.31;65.16;99979.29;1740474;82;20437;-54
2021/03/18 15:01:26;;;;;;;;;;;;;;;5.26;65.55;99979.41;1743205;82;20905;-54
2021/03/18 15:04:31;;;;;;;;;;;;;;;5.27;65.58;99977.03;1743868;82;20281;-55
2021/03/18 15:07:39;;;;;;;;;;;;;;;5.27;65.70;99974.32;1742840;81;20221;-54
2021/03/18 15:10:43;;;;;;;;;;;;;;;5.30;65.73;99974.88;1736949;81;20237;-54
2021/03/18 15:13:48;;;;;;;;;;;;;;;5.37;65.58;99977.84;1741495;81;20213;-55
2021/03/18 15:16:52;;;;;;;;;;;;;;;5.46;65.18;99978.27;1743073;82;20293;-54
2021/03/18 15:19:57;;;;;;;;;;;;;;;5.47;64.90;99976.76;1741616;81;20218;-54
2021/03/18 15:23:01;;;;;;;;;;;;;;;5.49;64.96;99984.25;1738592;82;20213;-53
2021/03/18 15:26:06;;;;;;;;;;;;;;;5.48;64.69;99978.98;1745977;81;20265;-54
2021/03/18 15:29:11;;;;;;;;;;;;;;;5.41;64.59;99988.73;1743733;81;20574;-54
2021/03/18 15:32:14;;;;;;;;;;;;;;;5.31;64.87;99990.67;1744303;82;20285;-54
2021/03/18 15:35:20;;;;;;;;;;;;;;;5.32;64.98;99993.72;1742860;81;20644;-54
2021/03/18 15:38:24;;;;;;;;;;;;;;;5.21;65.13;99996.64;1743445;81;20581;-54
2021/03/18 15:41:31;;;;;;;;;;;;;;;5.12;65.37;99997.03;1739774;81;20264;-55
2021/03/18 15:44:36;;;;;;;;;;;;;;;5.10;65.58;99991.42;1742942;81;20812;-52
2021/03/18 15:47:42;;;;;;;;;;;;;;;5.14;65.67;99994.20;1743098;81;20278;-53
2021/03/18 15:50:48;;;;;;;;;;;;;;;5.12;65.75;99991.61;1715631;80;20241;-54
2021/03/18 15:53:52;;;;;;;;;;;;;;;5.16;65.98;99995.74;1715605;82;20245;-54
2021/03/18 15:56:55;;;;;;;;;;;;;;;5.22;65.98;99996.48;1711170;83;20215;-54
2021/03/18 16:00:01;;;;;;;;;;;;;;;5.28;65.97;99996.41;1706460;84;20249;-54
2021/03/18 16:03:04;;;;;;;;;;;;;;;5.33;65.88;100002.20;1713576;82;20244;-53
2021/03/18 16:06:10;;;;;;;;;;;;;;;5.36;65.85;100010.06;1712807;84;20278;-53
2021/03/18 16:09:14;;;;;;;;;;;;;;;5.34;65.79;100010.72;1713572;84;20274;-53
2021/03/18 16:12:19;;;;;;;;;;;;;;;5.25;65.83;100012.46;1712064;83;20265;-53
2021/03/18 16:15:23;;;;;;;;;;;;;;;5.17;66.00;100008.81;1714285;83;20336;-54
2021/03/18 16:18:27;;;;;;;;;;;;;;;5.18;66.23;100020.01;1713152;82;20304;-56
2021/03/18 16:21:31;;;;;;;;;;;;;;;5.14;66.40;100014.55;1713994;84;20573;-55
2021/03/18 16:24:34;;;;;;;;;;;;;;;5.17;66.52;100018.31;1683737;84;20258;-54